Soro Syd, Denmark
Current Conditions -  °F | °C
As of 2:20 AM on Saturday 20 Dec 2014 (Local Time) from EKRK Reporting Station
Drizzle Drizzle  
Wind Chill: 30°   Ceiling: 17000
Heat Index: 39°   Visibility: 6mi
Dew Point: 34°   Wind: 18mph
Humidity: 81%   Direction: 260°W
Pressure: 29.56"   Gusts: NA
Location:  55.43°N, 11.57°E
Report Text: EKRK 200120Z AUTO 26016KT 9999NDV -DZ FEW022/// SCT065///BKN170/// 04/01 Q1001
Loading
Personal Weather Stations






























Interactive Weather Map New forecast layout! Learn more

10-Day Weather Forecast

Advertisements
Track Severe Weather on mobile